sensor_id;sensor_type;location;lat;lon;timestamp;temperature;humidity
14000;DHT22;7075;53.574;10.054;2023-07-30T00:00:33;18.90;99.90
14000;DHT22;7075;53.574;10.054;2023-07-30T00:03:02;18.80;99.90
14000;DHT22;7075;53.574;10.054;2023-07-30T00:05:29;18.70;99.90
14000;DHT22;7075;53.574;10.054;2023-07-30T00:07:54;18.50;99.90
14000;DHT22;7075;53.574;10.054;2023-07-30T00:10:20;18.40;99.90
14000;DHT22;7075;53.574;10.054;2023-07-30T00:12:46;18.30;99.90
14000;DHT22;7075;53.574;10.054;2023-07-30T00:15:12;18.20;99.90
14000;DHT22;7075;53.574;10.054;2023-07-30T00:17:38;18.30;99.90
14000;DHT22;7075;53.574;10.054;2023-07-30T00:20:05;18.40;99.90
14000;DHT22;7075;53.574;10.054;2023-07-30T00:22:31;18.40;99.90
14000;DHT22;7075;53.574;10.054;2023-07-30T00:24:56;18.40;99.90
14000;DHT22;7075;53.574;10.054;2023-07-30T00:27:22;18.50;99.90
14000;DHT22;7075;53.574;10.054;2023-07-30T00:29:47;18.40;99.90
14000;DHT22;7075;53.574;10.054;2023-07-30T00:32:13;18.40;99.90
14000;DHT22;7075;53.574;10.054;2023-07-30T00:34:41;18.30;99.90
14000;DHT22;7075;53.574;10.054;2023-07-30T00:37:06;18.30;99.90
14000;DHT22;7075;53.574;10.054;2023-07-30T00:39:32;18.30;99.90
14000;DHT22;7075;53.574;10.054;2023-07-30T00:41:57;18.40;99.90
14000;DHT22;7075;53.574;10.054;2023-07-30T00:44:23;18.40;99.90
14000;DHT22;7075;53.574;10.054;2023-07-30T00:46:49;18.40;99.90
14000;DHT22;7075;53.574;10.054;2023-07-30T00:49:14;18.40;99.90
14000;DHT22;7075;53.574;10.054;2023-07-30T00:51:41;18.40;99.90
14000;DHT22;7075;53.574;10.054;2023-07-30T00:54:07;18.50;99.90
14000;DHT22;7075;53.574;10.054;2023-07-30T00:56:32;18.60;99.90
14000;DHT22;7075;53.574;10.054;2023-07-30T00:58:58;18.70;99.90
14000;DHT22;7075;53.574;10.054;2023-07-30T01:01:23;18.70;99.90
14000;DHT22;7075;53.574;10.054;2023-07-30T01:03:50;18.70;99.90
14000;DHT22;7075;53.574;10.054;2023-07-30T01:06:15;18.80;99.90
14000;DHT22;7075;53.574;10.054;2023-07-30T01:08:41;18.90;99.90
14000;DHT22;7075;53.574;10.054;2023-07-30T01:11:08;18.90;99.90
14000;DHT22;7075;53.574;10.054;2023-07-30T01:13:35;19.00;99.90
14000;DHT22;7075;53.574;10.054;2023-07-30T01:16:01;19.00;99.90
14000;DHT22;7075;53.574;10.054;2023-07-30T01:18:28;19.00;99.90
14000;DHT22;7075;53.574;10.054;2023-07-30T01:20:58;19.00;99.90
14000;DHT22;7075;53.574;10.054;2023-07-30T01:23:24;18.90;99.90
14000;DHT22;7075;53.574;10.054;2023-07-30T01:25:59;18.70;99.90
14000;DHT22;7075;53.574;10.054;2023-07-30T01:28:25;18.60;99.90
14000;DHT22;7075;53.574;10.054;2023-07-30T01:30:53;18.60;99.90
14000;DHT22;7075;53.574;10.054;2023-07-30T01:33:20;18.70;99.90
14000;DHT22;7075;53.574;10.054;2023-07-30T01:35:45;18.70;99.90
14000;DHT22;7075;53.574;10.054;2023-07-30T01:38:11;18.60;99.90
14000;DHT22;7075;53.574;10.054;2023-07-30T01:40:37;18.60;99.90
14000;DHT22;7075;53.574;10.054;2023-07-30T01:43:03;18.50;99.90
14000;DHT22;7075;53.574;10.054;2023-07-30T01:45:30;18.50;99.90
14000;DHT22;7075;53.574;10.054;2023-07-30T01:47:56;18.50;99.90
14000;DHT22;7075;53.574;10.054;2023-07-30T01:50:21;18.40;99.90
14000;DHT22;7075;53.574;10.054;2023-07-30T01:52:47;18.40;99.90
14000;DHT22;7075;53.574;10.054;2023-07-30T01:55:12;18.30;99.90
14000;DHT22;7075;53.574;10.054;2023-07-30T01:57:38;18.20;99.90
14000;DHT22;7075;53.574;10.054;2023-07-30T02:00:05;18.20;99.90
14000;DHT22;7075;53.574;10.054;2023-07-30T02:02:30;18.20;99.90
14000;DHT22;7075;53.574;10.054;2023-07-30T02:04:56;18.20;99.90
14000;DHT22;7075;53.574;10.054;2023-07-30T02:07:21;18.20;99.90
14000;DHT22;7075;53.574;10.054;2023-07-30T02:09:47;18.20;99.90
14000;DHT22;7075;53.574;10.054;2023-07-30T02:12:12;18.30;99.90
14000;DHT22;7075;53.574;10.054;2023-07-30T02:14:38;18.30;99.90
14000;DHT22;7075;53.574;10.054;2023-07-30T02:17:04;18.20;99.90
14000;DHT22;7075;53.574;10.054;2023-07-30T02:19:30;18.20;99.90
14000;DHT22;7075;53.574;10.054;2023-07-30T02:21:55;18.20;99.90
14000;DHT22;7075;53.574;10.054;2023-07-30T02:24:21;18.20;99.90
14000;DHT22;7075;53.574;10.054;2023-07-30T02:26:46;18.20;99.90
14000;DHT22;7075;53.574;10.054;2023-07-30T02:29:14;18.10;99.90
14000;DHT22;7075;53.574;10.054;2023-07-30T02:31:39;18.10;99.90
14000;DHT22;7075;53.574;10.054;2023-07-30T02:34:05;18.10;99.90
14000;DHT22;7075;53.574;10.054;2023-07-30T02:36:32;18.00;99.90
14000;DHT22;7075;53.574;10.054;2023-07-30T02:38:58;18.00;99.90
14000;DHT22;7075;53.574;10.054;2023-07-30T02:41:23;18.00;99.90
14000;DHT22;7075;53.574;10.054;2023-07-30T02:44:13;18.00;99.90
14000;DHT22;7075;53.574;10.054;2023-07-30T02:46:39;18.00;99.90
14000;DHT22;7075;53.574;10.054;2023-07-30T02:49:04;18.00;99.90
14000;DHT22;7075;53.574;10.054;2023-07-30T02:51:30;18.10;99.90
14000;DHT22;7075;53.574;10.054;2023-07-30T02:54:04;18.10;99.90
14000;DHT22;7075;53.574;10.054;2023-07-30T02:56:29;18.20;99.90
14000;DHT22;7075;53.574;10.054;2023-07-30T02:58:56;18.20;99.90
14000;DHT22;7075;53.574;10.054;2023-07-30T03:01:22;18.30;99.90
14000;DHT22;7075;53.574;10.054;2023-07-30T03:03:47;18.20;99.90
14000;DHT22;7075;53.574;10.054;2023-07-30T03:06:13;18.30;99.90
14000;DHT22;7075;53.574;10.054;2023-07-30T03:08:39;18.30;99.90
14000;DHT22;7075;53.574;10.054;2023-07-30T03:11:05;18.20;99.90
14000;DHT22;7075;53.574;10.054;2023-07-30T03:13:31;18.20;99.90
14000;DHT22;7075;53.574;10.054;2023-07-30T03:15:56;18.20;99.90
14000;DHT22;7075;53.574;10.054;2023-07-30T03:18:22;18.20;99.90
14000;DHT22;7075;53.574;10.054;2023-07-30T03:20:47;18.20;99.90
14000;DHT22;7075;53.574;10.054;2023-07-30T03:23:13;18.10;99.90
14000;DHT22;7075;53.574;10.054;2023-07-30T03:25:39;18.10;99.90
14000;DHT22;7075;53.574;10.054;2023-07-30T03:28:05;18.10;99.90
14000;DHT22;7075;53.574;10.054;2023-07-30T03:30:30;18.10;99.90
14000;DHT22;7075;53.574;10.054;2023-07-30T03:32:56;18.10;99.90
14000;DHT22;7075;53.574;10.054;2023-07-30T03:35:22;18.10;99.90
14000;DHT22;7075;53.574;10.054;2023-07-30T03:37:47;18.10;99.90
14000;DHT22;7075;53.574;10.054;2023-07-30T03:40:13;18.00;99.90
14000;DHT22;7075;53.574;10.054;2023-07-30T03:42:38;18.00;99.90
14000;DHT22;7075;53.574;10.054;2023-07-30T03:45:29;18.00;99.90
14000;DHT22;7075;53.574;10.054;2023-07-30T03:47:55;18.00;99.90
14000;DHT22;7075;53.574;10.054;2023-07-30T03:50:20;18.00;99.90
14000;DHT22;7075;53.574;10.054;2023-07-30T03:52:46;18.00;99.90
14000;DHT22;7075;53.574;10.054;2023-07-30T03:55:12;18.00;99.90
14000;DHT22;7075;53.574;10.054;2023-07-30T03:57:38;17.90;99.90
14000;DHT22;7075;53.574;10.054;2023-07-30T04:00:04;17.90;99.90
14000;DHT22;7075;53.574;10.054;2023-07-30T04:02:30;17.90;99.90
14000;DHT22;7075;53.574;10.054;2023-07-30T04:04:56;18.00;99.90
14000;DHT22;7075;53.574;10.054;2023-07-30T04:07:21;18.00;99.90
14000;DHT22;7075;53.574;10.054;2023-07-30T04:09:47;18.10;99.90
14000;DHT22;7075;53.574;10.054;2023-07-30T04:12:12;18.00;99.90
14000;DHT22;7075;53.574;10.054;2023-07-30T04:14:39;18.00;99.90
14000;DHT22;7075;53.574;10.054;2023-07-30T04:17:05;18.00;99.90
14000;DHT22;7075;53.574;10.054;2023-07-30T04:19:30;18.00;99.90
14000;DHT22;7075;53.574;10.054;2023-07-30T04:21:56;18.00;99.90
14000;DHT22;7075;53.574;10.054;2023-07-30T04:24:21;18.00;99.90
14000;DHT22;7075;53.574;10.054;2023-07-30T04:26:47;18.00;99.90
14000;DHT22;7075;53.574;10.054;2023-07-30T04:29:13;18.00;99.90
14000;DHT22;7075;53.574;10.054;2023-07-30T04:31:39;18.00;99.90
14000;DHT22;7075;53.574;10.054;2023-07-30T04:34:06;18.00;99.90
14000;DHT22;7075;53.574;10.054;2023-07-30T04:36:32;18.00;99.90
14000;DHT22;7075;53.574;10.054;2023-07-30T04:38:58;18.00;99.90
14000;DHT22;7075;53.574;10.054;2023-07-30T04:41:24;18.00;99.90
14000;DHT22;7075;53.574;10.054;2023-07-30T04:43:49;18.00;99.90
14000;DHT22;7075;53.574;10.054;2023-07-30T04:46:15;18.10;99.90
14000;DHT22;7075;53.574;10.054;2023-07-30T04:48:41;18.00;99.90
14000;DHT22;7075;53.574;10.054;2023-07-30T04:51:06;18.00;99.90
14000;DHT22;7075;53.574;10.054;2023-07-30T04:53:32;18.00;99.90
14000;DHT22;7075;53.574;10.054;2023-07-30T04:55:58;18.00;99.90
14000;DHT22;7075;53.574;10.054;2023-07-30T04:58:24;18.00;99.90
14000;DHT22;7075;53.574;10.054;2023-07-30T05:00:50;18.10;99.90
14000;DHT22;7075;53.574;10.054;2023-07-30T05:03:15;18.00;99.90
14000;DHT22;7075;53.574;10.054;2023-07-30T05:05:41;18.00;99.90
14000;DHT22;7075;53.574;10.054;2023-07-30T05:08:07;18.00;99.90
14000;DHT22;7075;53.574;10.054;2023-07-30T05:10:33;18.00;99.90
14000;DHT22;7075;53.574;10.054;2023-07-30T05:12:59;18.00;99.90
14000;DHT22;7075;53.574;10.054;2023-07-30T05:15:25;17.90;99.90
14000;DHT22;7075;53.574;10.054;2023-07-30T05:17:50;17.90;99.90
14000;DHT22;7075;53.574;10.054;2023-07-30T05:20:17;18.00;99.90
14000;DHT22;7075;53.574;10.054;2023-07-30T05:22:43;18.00;99.90
14000;DHT22;7075;53.574;10.054;2023-07-30T05:25:09;18.00;99.90
14000;DHT22;7075;53.574;10.054;2023-07-30T05:27:36;18.00;99.90
14000;DHT22;7075;53.574;10.054;2023-07-30T05:30:03;18.00;99.90
14000;DHT22;7075;53.574;10.054;2023-07-30T05:32:30;18.00;99.90
14000;DHT22;7075;53.574;10.054;2023-07-30T05:34:55;18.00;99.90
14000;DHT22;7075;53.574;10.054;2023-07-30T05:37:21;18.00;99.90
14000;DHT22;7075;53.574;10.054;2023-07-30T05:39:47;18.00;99.90
14000;DHT22;7075;53.574;10.054;2023-07-30T05:42:12;18.00;99.90
14000;DHT22;7075;53.574;10.054;2023-07-30T05:44:38;18.00;99.90
14000;DHT22;7075;53.574;10.054;2023-07-30T05:47:03;18.00;99.90
14000;DHT22;7075;53.574;10.054;2023-07-30T05:49:29;18.10;99.90
14000;DHT22;7075;53.574;10.054;2023-07-30T05:51:55;18.10;99.90
14000;DHT22;7075;53.574;10.054;2023-07-30T05:54:20;18.10;99.90
14000;DHT22;7075;53.574;10.054;2023-07-30T05:56:46;18.10;99.90
14000;DHT22;7075;53.574;10.054;2023-07-30T05:59:12;18.10;99.90
14000;DHT22;7075;53.574;10.054;2023-07-30T06:01:39;18.00;99.90
14000;DHT22;7075;53.574;10.054;2023-07-30T06:04:05;18.00;99.90
14000;DHT22;7075;53.574;10.054;2023-07-30T06:06:32;18.00;99.90
14000;DHT22;7075;53.574;10.054;2023-07-30T06:08:58;18.00;99.90
14000;DHT22;7075;53.574;10.054;2023-07-30T06:11:25;18.00;99.90
14000;DHT22;7075;53.574;10.054;2023-07-30T06:13:50;18.10;99.90
14000;DHT22;7075;53.574;10.054;2023-07-30T06:16:17;18.10;99.90
14000;DHT22;7075;53.574;10.054;2023-07-30T06:18:43;18.10;99.90
14000;DHT22;7075;53.574;10.054;2023-07-30T06:21:09;18.20;99.90
14000;DHT22;7075;53.574;10.054;2023-07-30T06:23:35;18.20;99.90
14000;DHT22;7075;53.574;10.054;2023-07-30T06:26:07;18.30;99.90
14000;DHT22;7075;53.574;10.054;2023-07-30T06:28:33;18.40;99.90
14000;DHT22;7075;53.574;10.054;2023-07-30T06:31:03;18.50;99.90
14000;DHT22;7075;53.574;10.054;2023-07-30T06:33:31;18.50;99.90
14000;DHT22;7075;53.574;10.054;2023-07-30T06:35:56;18.50;99.90
14000;DHT22;7075;53.574;10.054;2023-07-30T06:38:22;18.60;99.90
14000;DHT22;7075;53.574;10.054;2023-07-30T06:40:49;18.60;99.90
14000;DHT22;7075;53.574;10.054;2023-07-30T06:43:15;18.70;99.90
14000;DHT22;7075;53.574;10.054;2023-07-30T06:45:42;18.70;99.90
14000;DHT22;7075;53.574;10.054;2023-07-30T06:48:09;18.70;99.90
14000;DHT22;7075;53.574;10.054;2023-07-30T06:50:35;18.70;99.90
14000;DHT22;7075;53.574;10.054;2023-07-30T06:53:01;18.70;99.90
14000;DHT22;7075;53.574;10.054;2023-07-30T06:55:27;18.80;99.90
14000;DHT22;7075;53.574;10.054;2023-07-30T06:57:53;18.80;99.90
14000;DHT22;7075;53.574;10.054;2023-07-30T07:00:18;18.80;99.90
14000;DHT22;7075;53.574;10.054;2023-07-30T07:02:48;18.70;99.90
14000;DHT22;7075;53.574;10.054;2023-07-30T07:05:14;18.70;99.90
14000;DHT22;7075;53.574;10.054;2023-07-30T07:07:40;18.70;99.90
14000;DHT22;7075;53.574;10.054;2023-07-30T07:10:06;18.60;99.90
14000;DHT22;7075;53.574;10.054;2023-07-30T07:12:32;18.40;99.90
14000;DHT22;7075;53.574;10.054;2023-07-30T07:14:58;18.40;99.90
14000;DHT22;7075;53.574;10.054;2023-07-30T07:17:27;18.40;99.90
14000;DHT22;7075;53.574;10.054;2023-07-30T07:19:53;18.40;99.90
14000;DHT22;7075;53.574;10.054;2023-07-30T07:22:20;18.50;99.90
14000;DHT22;7075;53.574;10.054;2023-07-30T07:24:46;18.60;99.90
14000;DHT22;7075;53.574;10.054;2023-07-30T07:27:13;18.70;99.90
14000;DHT22;7075;53.574;10.054;2023-07-30T07:29:38;18.70;99.90
14000;DHT22;7075;53.574;10.054;2023-07-30T07:32:05;18.70;99.90
14000;DHT22;7075;53.574;10.054;2023-07-30T07:34:30;18.70;99.90
14000;DHT22;7075;53.574;10.054;2023-07-30T07:36:56;18.60;99.90
14000;DHT22;7075;53.574;10.054;2023-07-30T07:39:22;18.60;99.90
14000;DHT22;7075;53.574;10.054;2023-07-30T07:41:48;18.60;99.90
14000;DHT22;7075;53.574;10.054;2023-07-30T07:44:13;18.60;99.90
14000;DHT22;7075;53.574;10.054;2023-07-30T07:46:40;18.60;99.90
14000;DHT22;7075;53.574;10.054;2023-07-30T07:49:07;18.60;99.90
14000;DHT22;7075;53.574;10.054;2023-07-30T07:51:34;18.70;99.90
14000;DHT22;7075;53.574;10.054;2023-07-30T07:53:59;18.80;99.90
14000;DHT22;7075;53.574;10.054;2023-07-30T07:56:25;18.90;99.90
14000;DHT22;7075;53.574;10.054;2023-07-30T07:58:51;19.00;99.90
14000;DHT22;7075;53.574;10.054;2023-07-30T08:01:16;19.00;99.90
14000;DHT22;7075;53.574;10.054;2023-07-30T08:03:42;19.10;99.90
14000;DHT22;7075;53.574;10.054;2023-07-30T08:06:08;19.10;99.90
14000;DHT22;7075;53.574;10.054;2023-07-30T08:08:33;19.10;99.90
14000;DHT22;7075;53.574;10.054;2023-07-30T08:11:07;19.20;99.90
14000;DHT22;7075;53.574;10.054;2023-07-30T08:13:34;19.10;99.90
14000;DHT22;7075;53.574;10.054;2023-07-30T08:16:00;19.10;99.90
14000;DHT22;7075;53.574;10.054;2023-07-30T08:18:26;19.20;99.90
14000;DHT22;7075;53.574;10.054;2023-07-30T08:20:53;19.30;99.90
14000;DHT22;7075;53.574;10.054;2023-07-30T08:23:19;19.40;99.90
14000;DHT22;7075;53.574;10.054;2023-07-30T08:25:44;19.40;99.90
14000;DHT22;7075;53.574;10.054;2023-07-30T08:28:13;19.40;99.90
14000;DHT22;7075;53.574;10.054;2023-07-30T08:30:39;19.50;99.90
14000;DHT22;7075;53.574;10.054;2023-07-30T08:33:05;19.50;99.90
14000;DHT22;7075;53.574;10.054;2023-07-30T08:35:30;19.50;99.90
14000;DHT22;7075;53.574;10.054;2023-07-30T08:37:56;19.50;99.90
14000;DHT22;7075;53.574;10.054;2023-07-30T08:40:22;19.50;99.90
14000;DHT22;7075;53.574;10.054;2023-07-30T08:42:51;19.60;99.90
14000;DHT22;7075;53.574;10.054;2023-07-30T08:45:17;19.50;99.90
14000;DHT22;7075;53.574;10.054;2023-07-30T08:47:47;19.50;99.90
14000;DHT22;7075;53.574;10.054;2023-07-30T08:50:13;19.50;99.90
14000;DHT22;7075;53.574;10.054;2023-07-30T08:52:39;19.60;99.90
14000;DHT22;7075;53.574;10.054;2023-07-30T08:55:07;19.70;99.90
14000;DHT22;7075;53.574;10.054;2023-07-30T08:57:33;19.80;99.90
14000;DHT22;7075;53.574;10.054;2023-07-30T09:03:06;19.90;99.90
14000;DHT22;7075;53.574;10.054;2023-07-30T09:05:26;19.90;99.90
14000;DHT22;7075;53.574;10.054;2023-07-30T09:07:57;19.80;99.90
14000;DHT22;7075;53.574;10.054;2023-07-30T09:10:25;19.80;99.90
14000;DHT22;7075;53.574;10.054;2023-07-30T09:12:56;19.80;99.90
14000;DHT22;7075;53.574;10.054;2023-07-30T09:15:33;19.90;99.90
14000;DHT22;7075;53.574;10.054;2023-07-30T09:18:01;20.00;99.90
14000;DHT22;7075;53.574;10.054;2023-07-30T09:20:30;20.00;99.90
14000;DHT22;7075;53.574;10.054;2023-07-30T09:23:03;20.00;99.90
14000;DHT22;7075;53.574;10.054;2023-07-30T09:25:28;20.10;99.90
14000;DHT22;7075;53.574;10.054;2023-07-30T09:27:55;20.10;99.90
14000;DHT22;7075;53.574;10.054;2023-07-30T09:30:23;20.10;99.90
14000;DHT22;7075;53.574;10.054;2023-07-30T09:32:57;20.10;99.90
14000;DHT22;7075;53.574;10.054;2023-07-30T09:35:26;20.10;99.90
14000;DHT22;7075;53.574;10.054;2023-07-30T09:37:59;20.10;99.90
14000;DHT22;7075;53.574;10.054;2023-07-30T09:40:36;20.20;99.90
14000;DHT22;7075;53.574;10.054;2023-07-30T09:43:03;20.20;99.90
14000;DHT22;7075;53.574;10.054;2023-07-30T09:45:33;20.20;99.90
14000;DHT22;7075;53.574;10.054;2023-07-30T09:48:02;20.20;99.90
14000;DHT22;7075;53.574;10.054;2023-07-30T09:50:30;20.30;99.90
14000;DHT22;7075;53.574;10.054;2023-07-30T09:52:58;20.20;99.90
14000;DHT22;7075;53.574;10.054;2023-07-30T09:55:26;20.30;99.90
14000;DHT22;7075;53.574;10.054;2023-07-30T09:57:52;20.20;99.90
14000;DHT22;7075;53.574;10.054;2023-07-30T10:00:17;20.30;99.90
14000;DHT22;7075;53.574;10.054;2023-07-30T10:02:46;20.30;99.90
14000;DHT22;7075;53.574;10.054;2023-07-30T10:05:20;20.30;99.90
14000;DHT22;7075;53.574;10.054;2023-07-30T10:08:23;20.20;99.90
14000;DHT22;7075;53.574;10.054;2023-07-30T10:10:50;20.30;99.90
14000;DHT22;7075;53.574;10.054;2023-07-30T10:13:17;20.30;99.90
14000;DHT22;7075;53.574;10.054;2023-07-30T10:15:43;20.30;99.90
14000;DHT22;7075;53.574;10.054;2023-07-30T10:18:10;20.30;99.90
14000;DHT22;7075;53.574;10.054;2023-07-30T10:20:36;20.30;99.90
14000;DHT22;7075;53.574;10.054;2023-07-30T10:23:01;20.40;99.90
14000;DHT22;7075;53.574;10.054;2023-07-30T10:25:41;20.40;99.90
14000;DHT22;7075;53.574;10.054;2023-07-30T10:28:08;20.50;99.90
14000;DHT22;7075;53.574;10.054;2023-07-30T10:30:33;20.50;99.90
14000;DHT22;7075;53.574;10.054;2023-07-30T10:33:02;20.60;99.90
14000;DHT22;7075;53.574;10.054;2023-07-30T10:35:45;20.60;99.90
14000;DHT22;7075;53.574;10.054;2023-07-30T10:38:30;20.60;99.90
14000;DHT22;7075;53.574;10.054;2023-07-30T10:41:15;20.80;99.90
14000;DHT22;7075;53.574;10.054;2023-07-30T10:43:48;20.90;99.90
14000;DHT22;7075;53.574;10.054;2023-07-30T10:46:15;20.90;99.90
14000;DHT22;7075;53.574;10.054;2023-07-30T10:48:43;20.90;99.90
14000;DHT22;7075;53.574;10.054;2023-07-30T10:51:14;20.90;99.90
14000;DHT22;7075;53.574;10.054;2023-07-30T10:53:47;20.80;99.90
14000;DHT22;7075;53.574;10.054;2023-07-30T10:56:20;20.80;99.90
14000;DHT22;7075;53.574;10.054;2023-07-30T10:58:51;20.80;99.90
14000;DHT22;7075;53.574;10.054;2023-07-30T11:01:17;20.70;99.90
14000;DHT22;7075;53.574;10.054;2023-07-30T11:03:43;20.70;99.90
14000;DHT22;7075;53.574;10.054;2023-07-30T11:06:09;20.80;99.90
14000;DHT22;7075;53.574;10.054;2023-07-30T11:08:39;20.80;99.90
14000;DHT22;7075;53.574;10.054;2023-07-30T11:11:07;20.80;99.90
14000;DHT22;7075;53.574;10.054;2023-07-30T11:13:41;20.70;99.90
14000;DHT22;7075;53.574;10.054;2023-07-30T11:16:08;20.60;99.90
14000;DHT22;7075;53.574;10.054;2023-07-30T11:18:35;20.70;99.90
14000;DHT22;7075;53.574;10.054;2023-07-30T11:21:12;20.80;99.90
14000;DHT22;7075;53.574;10.054;2023-07-30T11:23:40;20.80;99.90
14000;DHT22;7075;53.574;10.054;2023-07-30T11:26:14;20.90;99.90
14000;DHT22;7075;53.574;10.054;2023-07-30T11:28:41;21.00;99.90
14000;DHT22;7075;53.574;10.054;2023-07-30T11:33:43;21.20;99.90
14000;DHT22;7075;53.574;10.054;2023-07-30T11:36:15;21.40;99.90
14000;DHT22;7075;53.574;10.054;2023-07-30T11:38:41;21.40;99.90
14000;DHT22;7075;53.574;10.054;2023-07-30T11:41:09;21.40;99.90
14000;DHT22;7075;53.574;10.054;2023-07-30T11:43:37;21.50;99.90
14000;DHT22;7075;53.574;10.054;2023-07-30T11:46:15;21.70;99.90
14000;DHT22;7075;53.574;10.054;2023-07-30T11:48:48;22.00;99.90
14000;DHT22;7075;53.574;10.054;2023-07-30T11:51:28;22.60;99.90
14000;DHT22;7075;53.574;10.054;2023-07-30T11:58:47;22.80;99.90
14000;DHT22;7075;53.574;10.054;2023-07-30T12:01:14;23.00;99.90
14000;DHT22;7075;53.574;10.054;2023-07-30T12:03:43;23.30;99.90
14000;DHT22;7075;53.574;10.054;2023-07-30T12:06:10;23.60;99.90
14000;DHT22;7075;53.574;10.054;2023-07-30T12:08:38;24.10;99.90
14000;DHT22;7075;53.574;10.054;2023-07-30T12:11:09;24.30;99.90
14000;DHT22;7075;53.574;10.054;2023-07-30T12:13:45;24.10;99.90
14000;DHT22;7075;53.574;10.054;2023-07-30T12:16:13;24.00;99.90
14000;DHT22;7075;53.574;10.054;2023-07-30T12:18:40;24.10;99.90
14000;DHT22;7075;53.574;10.054;2023-07-30T12:21:07;24.10;99.90
14000;DHT22;7075;53.574;10.054;2023-07-30T12:23:34;24.00;99.90
14000;DHT22;7075;53.574;10.054;2023-07-30T12:26:00;23.80;99.90
14000;DHT22;7075;53.574;10.054;2023-07-30T12:28:26;23.40;99.90
14000;DHT22;7075;53.574;10.054;2023-07-30T12:30:52;23.10;99.90
14000;DHT22;7075;53.574;10.054;2023-07-30T12:33:17;23.00;99.90
14000;DHT22;7075;53.574;10.054;2023-07-30T12:35:44;23.30;99.90
14000;DHT22;7075;53.574;10.054;2023-07-30T12:38:10;23.40;99.90
14000;DHT22;7075;53.574;10.054;2023-07-30T12:40:35;23.60;99.90
14000;DHT22;7075;53.574;10.054;2023-07-30T12:43:02;23.80;99.90
14000;DHT22;7075;53.574;10.054;2023-07-30T12:45:30;23.90;99.90
14000;DHT22;7075;53.574;10.054;2023-07-30T12:47:57;23.60;99.90
14000;DHT22;7075;53.574;10.054;2023-07-30T12:50:23;23.40;99.90
14000;DHT22;7075;53.574;10.054;2023-07-30T12:52:50;23.30;99.90
14000;DHT22;7075;53.574;10.054;2023-07-30T12:55:15;22.90;99.90
14000;DHT22;7075;53.574;10.054;2023-07-30T12:57:41;22.70;99.90
14000;DHT22;7075;53.574;10.054;2023-07-30T13:00:07;22.70;99.90
14000;DHT22;7075;53.574;10.054;2023-07-30T13:02:33;22.60;99.90
14000;DHT22;7075;53.574;10.054;2023-07-30T13:04:59;22.50;99.90
14000;DHT22;7075;53.574;10.054;2023-07-30T13:07:26;22.40;99.90
14000;DHT22;7075;53.574;10.054;2023-07-30T13:10:09;22.40;99.90
14000;DHT22;7075;53.574;10.054;2023-07-30T13:12:36;22.20;99.90
14000;DHT22;7075;53.574;10.054;2023-07-30T13:15:02;22.00;99.90
14000;DHT22;7075;53.574;10.054;2023-07-30T13:17:28;21.90;99.90
14000;DHT22;7075;53.574;10.054;2023-07-30T13:19:55;21.40;99.90
14000;DHT22;7075;53.574;10.054;2023-07-30T13:22:22;20.70;99.90
14000;DHT22;7075;53.574;10.054;2023-07-30T13:24:47;20.00;99.90
14000;DHT22;7075;53.574;10.054;2023-07-30T13:27:13;19.30;99.90
14000;DHT22;7075;53.574;10.054;2023-07-30T13:29:39;18.80;99.90
14000;DHT22;7075;53.574;10.054;2023-07-30T13:32:05;18.40;99.90
14000;DHT22;7075;53.574;10.054;2023-07-30T13:34:31;18.30;99.90
14000;DHT22;7075;53.574;10.054;2023-07-30T13:36:57;18.00;99.90
14000;DHT22;7075;53.574;10.054;2023-07-30T13:39:22;17.90;99.90
14000;DHT22;7075;53.574;10.054;2023-07-30T13:41:48;17.80;99.90
14000;DHT22;7075;53.574;10.054;2023-07-30T13:44:14;17.70;99.90
14000;DHT22;7075;53.574;10.054;2023-07-30T13:46:39;17.70;99.90
14000;DHT22;7075;53.574;10.054;2023-07-30T13:49:08;17.80;99.90
14000;DHT22;7075;53.574;10.054;2023-07-30T13:51:37;17.80;99.90
14000;DHT22;7075;53.574;10.054;2023-07-30T13:54:04;17.80;99.90
14000;DHT22;7075;53.574;10.054;2023-07-30T13:56:34;17.90;99.90
14000;DHT22;7075;53.574;10.054;2023-07-30T13:59:01;17.80;99.90
14000;DHT22;7075;53.574;10.054;2023-07-30T14:01:28;17.80;99.90
14000;DHT22;7075;53.574;10.054;2023-07-30T14:03:54;17.60;99.90
14000;DHT22;7075;53.574;10.054;2023-07-30T14:06:20;17.50;99.90
14000;DHT22;7075;53.574;10.054;2023-07-30T14:08:48;17.60;99.90
14000;DHT22;7075;53.574;10.054;2023-07-30T14:11:13;17.70;99.90
14000;DHT22;7075;53.574;10.054;2023-07-30T14:13:40;17.90;99.90
14000;DHT22;7075;53.574;10.054;2023-07-30T14:16:06;18.00;99.90
14000;DHT22;7075;53.574;10.054;2023-07-30T14:18:32;18.40;99.90
14000;DHT22;7075;53.574;10.054;2023-07-30T14:20:59;18.50;99.90
14000;DHT22;7075;53.574;10.054;2023-07-30T14:23:27;18.80;99.90
14000;DHT22;7075;53.574;10.054;2023-07-30T14:25:53;19.00;99.90
14000;DHT22;7075;53.574;10.054;2023-07-30T14:28:20;19.40;99.90
14000;DHT22;7075;53.574;10.054;2023-07-30T14:30:47;19.70;99.90
14000;DHT22;7075;53.574;10.054;2023-07-30T14:33:13;19.80;99.90
14000;DHT22;7075;53.574;10.054;2023-07-30T14:35:39;20.10;99.90
14000;DHT22;7075;53.574;10.054;2023-07-30T14:38:06;20.00;99.90
14000;DHT22;7075;53.574;10.054;2023-07-30T14:40:33;20.30;99.90
14000;DHT22;7075;53.574;10.054;2023-07-30T14:43:17;20.60;99.90
14000;DHT22;7075;53.574;10.054;2023-07-30T14:45:44;20.90;99.90
14000;DHT22;7075;53.574;10.054;2023-07-30T14:48:09;21.20;99.90
14000;DHT22;7075;53.574;10.054;2023-07-30T14:50:35;21.50;99.90
14000;DHT22;7075;53.574;10.054;2023-07-30T14:53:01;21.70;99.90
14000;DHT22;7075;53.574;10.054;2023-07-30T14:55:27;21.50;99.90
14000;DHT22;7075;53.574;10.054;2023-07-30T14:57:52;21.20;99.90
14000;DHT22;7075;53.574;10.054;2023-07-30T15:00:18;21.20;99.90
14000;DHT22;7075;53.574;10.054;2023-07-30T15:02:43;21.20;99.90
14000;DHT22;7075;53.574;10.054;2023-07-30T15:05:09;21.50;99.90
14000;DHT22;7075;53.574;10.054;2023-07-30T15:07:36;21.80;99.90
14000;DHT22;7075;53.574;10.054;2023-07-30T15:10:04;22.10;99.90
14000;DHT22;7075;53.574;10.054;2023-07-30T15:12:32;22.30;99.90
14000;DHT22;7075;53.574;10.054;2023-07-30T15:14:58;22.50;99.90
14000;DHT22;7075;53.574;10.054;2023-07-30T15:17:24;22.40;99.90
14000;DHT22;7075;53.574;10.054;2023-07-30T15:19:49;22.10;99.90
14000;DHT22;7075;53.574;10.054;2023-07-30T15:22:16;22.10;99.90
14000;DHT22;7075;53.574;10.054;2023-07-30T15:24:42;22.30;99.90
14000;DHT22;7075;53.574;10.054;2023-07-30T15:27:08;22.10;99.90
14000;DHT22;7075;53.574;10.054;2023-07-30T15:29:33;22.10;99.90
14000;DHT22;7075;53.574;10.054;2023-07-30T15:32:01;22.00;99.90
14000;DHT22;7075;53.574;10.054;2023-07-30T15:34:27;21.90;99.90
14000;DHT22;7075;53.574;10.054;2023-07-30T15:36:53;21.80;99.90
14000;DHT22;7075;53.574;10.054;2023-07-30T15:39:19;21.60;99.90